createdAt,value
2023-03-31T00:00:12.027Z,95177.00
2023-03-31T00:04:15.039Z,95170.00
2023-03-31T00:08:19.421Z,95165.00
2023-03-31T00:12:22.864Z,95162.00
2023-03-31T00:16:25.793Z,95144.00
2023-03-31T00:20:28.676Z,95144.00
2023-03-31T00:24:33.628Z,95140.00
2023-03-31T00:28:36.436Z,95130.00
2023-03-31T00:32:39.364Z,95134.00
2023-03-31T00:36:47.221Z,95133.00
2023-03-31T00:40:53.825Z,95118.00
2023-03-31T00:45:33.033Z,95111.00
2023-03-31T00:49:40.329Z,95110.00
2023-03-31T00:53:43.684Z,95103.00
2023-03-31T00:57:48.504Z,95098.00
2023-03-31T01:01:52.816Z,95078.00
2023-03-31T01:05:58.707Z,95080.00
2023-03-31T01:10:05.109Z,95077.00
2023-03-31T01:14:10.516Z,95073.00
2023-03-31T01:18:16.307Z,95055.00
2023-03-31T01:22:41.185Z,95041.00
2023-03-31T01:27:02.586Z,95031.00
2023-03-31T01:31:57.165Z,95020.00
2023-03-31T01:36:21.194Z,95030.00
2023-03-31T01:40:45.902Z,95019.00
2023-03-31T01:44:57.050Z,95022.00
2023-03-31T01:49:08.910Z,94999.00
2023-03-31T01:53:19.439Z,94990.00
2023-03-31T01:57:33.009Z,94986.00
2023-03-31T02:01:42.344Z,94985.00
2023-03-31T02:05:50.270Z,94977.00
2023-03-31T02:09:58.468Z,94989.00
2023-03-31T02:14:04.733Z,94974.00
2023-03-31T02:18:12.022Z,94966.00
2023-03-31T02:22:19.639Z,94957.00
2023-03-31T02:26:27.423Z,94964.00
2023-03-31T02:30:39.940Z,94965.00
2023-03-31T02:34:43.288Z,94978.00
2023-03-31T02:38:51.257Z,94993.00
2023-03-31T02:42:54.284Z,94973.00
2023-03-31T02:46:58.427Z,94958.00
2023-03-31T02:51:36.889Z,94965.00
2023-03-31T02:55:58.692Z,94950.00
2023-03-31T03:00:10.234Z,94946.00
2023-03-31T03:04:37.415Z,94935.00
2023-03-31T03:08:55.589Z,94952.00
2023-03-31T03:13:07.510Z,94958.00
2023-03-31T03:17:13.441Z,94973.00
2023-03-31T03:21:17.582Z,94958.00
2023-03-31T03:25:20.828Z,94969.00
2023-03-31T03:29:23.766Z,94985.00
2023-03-31T03:33:26.528Z,94991.00
2023-03-31T03:37:30.892Z,94995.00
2023-03-31T03:41:33.973Z,94981.00
2023-03-31T03:45:36.771Z,94971.00
2023-03-31T03:49:39.576Z,94952.00
2023-03-31T03:53:43.836Z,94948.00
2023-03-31T03:57:46.622Z,94940.00
2023-03-31T04:01:49.514Z,94929.00
2023-03-31T04:05:52.399Z,94925.00
2023-03-31T04:09:56.520Z,94906.00
2023-03-31T04:13:59.286Z,94904.00
2023-03-31T04:18:02.161Z,94891.00
2023-03-31T04:22:05.009Z,94869.00
2023-03-31T04:26:09.611Z,94863.00
2023-03-31T04:30:14.011Z,94847.00
2023-03-31T04:34:16.869Z,94849.00
2023-03-31T04:38:21.014Z,94855.00
2023-03-31T04:42:25.178Z,94851.00
2023-03-31T04:46:28.081Z,94830.00
2023-03-31T04:50:31.295Z,94787.00
2023-03-31T04:54:34.146Z,94765.00
2023-03-31T04:58:38.284Z,94747.00
2023-03-31T05:02:41.197Z,94761.00
2023-03-31T05:06:44.033Z,94734.00
2023-03-31T05:10:46.809Z,94707.00
2023-03-31T05:14:50.955Z,94693.00
2023-03-31T05:18:53.803Z,94688.00
2023-03-31T05:22:56.806Z,94680.00
2023-03-31T05:26:59.618Z,94675.00
2023-03-31T05:31:05.009Z,94661.00
2023-03-31T05:35:08.510Z,94639.00
2023-03-31T05:39:11.470Z,94622.00
2023-03-31T05:43:14.303Z,94617.00
2023-03-31T05:47:19.103Z,94601.00
2023-03-31T05:51:22.150Z,94589.00
2023-03-31T05:55:24.963Z,94587.00
2023-03-31T05:59:28.111Z,94575.00
2023-03-31T06:03:32.494Z,94573.00
2023-03-31T06:07:35.831Z,94560.00
2023-03-31T06:11:38.822Z,94541.00
2023-03-31T06:15:42.109Z,94522.00
2023-03-31T06:19:46.294Z,94513.00
2023-03-31T06:23:49.355Z,94518.00
2023-03-31T06:27:52.151Z,94506.00
2023-03-31T06:31:54.990Z,94504.00
2023-03-31T06:36:01.609Z,94500.00
2023-03-31T06:40:05.140Z,94488.00
2023-03-31T06:44:07.937Z,94488.00
2023-03-31T06:48:10.857Z,94492.00
2023-03-31T06:52:15.376Z,94501.00
2023-03-31T06:56:18.160Z,94515.00
2023-03-31T07:00:23.145Z,94570.00
2023-03-31T07:04:26.469Z,94576.00
2023-03-31T07:08:30.627Z,94589.00
2023-03-31T07:12:37.490Z,94577.00
2023-03-31T07:16:40.409Z,94592.00
2023-03-31T07:20:43.679Z,94642.00
2023-03-31T07:24:47.838Z,94648.00
2023-03-31T07:28:51.847Z,94630.00
2023-03-31T07:32:55.564Z,94590.00
2023-03-31T07:36:59.350Z,94565.00
2023-03-31T07:41:09.264Z,94560.00
2023-03-31T07:45:13.190Z,94554.00
2023-03-31T07:49:16.329Z,94539.00
2023-03-31T07:53:19.122Z,94526.00
2023-03-31T07:57:23.437Z,94501.00
2023-03-31T08:01:29.007Z,94481.00
2023-03-31T08:05:32.133Z,94475.00
2023-03-31T08:09:35.080Z,94487.00
2023-03-31T08:13:39.260Z,94468.00
2023-03-31T08:17:42.091Z,94473.00
2023-03-31T08:21:44.934Z,94492.00
2023-03-31T08:25:47.911Z,94470.00
2023-03-31T08:29:52.067Z,94476.00
2023-03-31T08:33:54.917Z,94495.00
2023-03-31T08:37:57.745Z,94499.00
2023-03-31T08:42:03.883Z,94518.00
2023-03-31T08:46:12.011Z,94536.00
2023-03-31T08:50:17.854Z,94553.00
2023-03-31T08:54:27.451Z,94562.00
2023-03-31T08:58:37.848Z,94575.00
2023-03-31T09:02:49.566Z,94559.00
2023-03-31T09:06:59.849Z,94556.00
2023-03-31T09:11:13.140Z,94525.00
2023-03-31T09:15:25.920Z,94524.00
2023-03-31T09:19:37.539Z,94525.00
2023-03-31T09:23:45.854Z,94505.00
2023-03-31T09:27:50.464Z,94512.00
2023-03-31T09:31:54.215Z,94500.00
2023-03-31T09:35:58.680Z,94498.00
2023-03-31T09:40:07.618Z,94485.00
2023-03-31T09:44:23.308Z,94501.00
2023-03-31T09:48:29.543Z,94495.00
2023-03-31T09:52:36.053Z,94484.00
2023-03-31T09:56:52.827Z,94489.00
2023-03-31T10:01:02.429Z,94476.00
2023-03-31T10:05:06.878Z,94460.00
2023-03-31T10:09:12.415Z,94474.00
2023-03-31T10:13:18.675Z,94450.00
2023-03-31T10:17:23.308Z,94440.00
2023-03-31T10:21:28.050Z,94436.00
2023-03-31T10:25:34.384Z,94439.00
2023-03-31T10:29:37.335Z,94419.00
2023-03-31T10:33:45.240Z,94425.00
2023-03-31T10:37:50.973Z,94406.00
2023-03-31T10:41:55.223Z,94413.00
2023-03-31T10:46:00.528Z,94402.00
2023-03-31T10:50:06.238Z,94399.00
2023-03-31T10:54:10.065Z,94387.00
2023-03-31T10:58:25.880Z,94388.00
2023-03-31T11:02:53.380Z,94372.00
2023-03-31T11:07:01.862Z,94369.00
2023-03-31T11:11:23.127Z,94425.00
2023-03-31T11:15:34.972Z,94497.00
2023-03-31T11:19:52.110Z,94504.00
2023-03-31T11:24:10.392Z,94464.00
2023-03-31T11:28:46.347Z,94427.00
2023-03-31T11:33:01.644Z,94426.00
2023-03-31T11:37:19.556Z,94425.00
2023-03-31T11:41:35.882Z,94388.00
2023-03-31T11:45:42.396Z,94373.00
2023-03-31T11:49:52.156Z,94381.00
2023-03-31T11:53:58.085Z,94380.00
2023-03-31T11:58:03.405Z,94342.00
2023-03-31T12:02:16.430Z,94309.00
2023-03-31T12:06:24.480Z,94279.00
2023-03-31T12:10:35.433Z,94294.00
2023-03-31T12:14:42.721Z,94299.00
2023-03-31T12:18:56.999Z,94293.00
2023-03-31T12:23:04.753Z,94295.00
2023-03-31T12:27:15.198Z,94302.00
2023-03-31T12:31:22.483Z,94310.00
2023-03-31T12:35:28.998Z,94306.00
2023-03-31T12:39:39.699Z,94304.00
2023-03-31T12:44:18.740Z,94312.00
2023-03-31T12:48:40.500Z,94304.00
2023-03-31T12:52:51.747Z,94296.00
2023-03-31T12:57:17.294Z,94316.00
2023-03-31T13:01:22.029Z,94302.00
2023-03-31T13:05:50.977Z,94351.00
2023-03-31T13:09:57.516Z,94346.00
2023-03-31T13:14:02.847Z,94353.00
2023-03-31T13:18:07.705Z,94247.00
2023-03-31T13:22:30.288Z,94229.00
2023-03-31T13:26:47.882Z,94247.00
2023-03-31T13:31:03.151Z,94246.00
2023-03-31T13:35:15.028Z,94239.00
2023-03-31T13:39:56.610Z,94234.00
2023-03-31T13:44:29.466Z,94273.00
2023-03-31T13:48:56.767Z,94259.00
2023-03-31T13:53:07.711Z,94255.00
2023-03-31T13:57:29.207Z,94252.00
2023-03-31T14:01:49.944Z,94253.00
2023-03-31T14:05:58.302Z,94286.00
2023-03-31T14:10:02.901Z,94293.00
2023-03-31T14:14:14.468Z,94303.00
2023-03-31T14:18:23.478Z,94328.00
2023-03-31T14:22:36.954Z,94309.00
2023-03-31T14:26:52.512Z,94338.00
2023-03-31T14:31:13.315Z,94362.00
2023-03-31T14:35:32.497Z,94398.00
2023-03-31T14:39:41.140Z,94387.00
2023-03-31T14:43:49.804Z,94362.00
2023-03-31T14:47:57.407Z,94338.00
2023-03-31T14:52:03.334Z,94347.00
2023-03-31T14:56:11.121Z,94314.00
2023-03-31T15:00:17.938Z,94316.00
2023-03-31T15:04:28.791Z,94299.00
2023-03-31T15:08:42.549Z,94297.00
2023-03-31T15:12:47.640Z,94295.00
2023-03-31T15:16:51.622Z,94288.00
2023-03-31T15:20:54.587Z,94279.00
2023-03-31T15:24:58.636Z,94285.00
2023-03-31T15:29:07.171Z,94290.00
2023-03-31T15:37:43.208Z,94290.00
2023-03-31T15:41:48.326Z,94289.00
2023-03-31T15:45:53.718Z,94306.00
2023-03-31T15:49:59.476Z,94307.00
2023-03-31T15:54:02.536Z,94303.00
2023-03-31T15:58:05.478Z,94305.00
2023-03-31T16:02:13.322Z,94303.00
2023-03-31T16:06:25.025Z,94299.00
2023-03-31T16:10:28.171Z,94284.00
2023-03-31T16:14:34.247Z,94293.00
2023-03-31T16:18:40.863Z,94281.00
2023-03-31T16:22:47.814Z,94279.00
2023-03-31T16:26:50.961Z,94290.00
2023-03-31T16:30:54.590Z,94286.00
2023-03-31T16:35:01.385Z,94283.00
2023-03-31T16:39:05.875Z,94286.00
2023-03-31T16:43:11.447Z,94296.00
2023-03-31T16:47:20.421Z,94381.00
2023-03-31T16:51:32.053Z,94385.00
2023-03-31T16:55:34.916Z,94392.00
2023-03-31T16:59:37.845Z,94386.00
2023-03-31T17:03:41.904Z,94374.00
2023-03-31T17:07:47.388Z,94356.00
2023-03-31T17:11:50.272Z,94357.00
2023-03-31T17:16:01.347Z,94361.00
2023-03-31T17:20:12.532Z,94361.00
2023-03-31T17:24:16.674Z,94360.00
2023-03-31T17:28:19.621Z,94358.00
2023-03-31T17:32:23.607Z,94349.00
2023-03-31T17:36:27.030Z,94343.00
2023-03-31T17:40:33.516Z,94348.00
2023-03-31T17:44:36.305Z,94346.00
2023-03-31T17:48:39.654Z,94341.00
2023-03-31T17:52:42.619Z,94339.00
2023-03-31T17:56:50.083Z,94344.00
2023-03-31T18:00:53.128Z,94347.00
2023-03-31T18:04:55.987Z,94358.00
2023-03-31T18:08:58.841Z,94372.00
2023-03-31T18:13:03.183Z,94371.00
2023-03-31T18:17:06.110Z,94366.00
2023-03-31T18:21:11.251Z,94364.00
2023-03-31T18:25:14.025Z,94366.00
2023-03-31T18:29:18.292Z,94364.00
2023-03-31T18:33:21.476Z,94373.00
2023-03-31T18:37:27.497Z,94366.00
2023-03-31T18:41:30.373Z,94387.00
2023-03-31T18:45:34.882Z,94384.00
2023-03-31T18:49:37.818Z,94387.00
2023-03-31T18:53:40.768Z,94386.00
2023-03-31T18:57:43.583Z,94397.00
2023-03-31T19:01:47.800Z,94378.00
2023-03-31T19:05:50.775Z,94385.00
2023-03-31T19:09:53.789Z,94391.00
2023-03-31T19:13:56.656Z,94400.00
2023-03-31T19:18:01.367Z,94395.00
2023-03-31T19:22:05.790Z,94401.00
2023-03-31T19:26:09.112Z,94388.00
2023-03-31T19:30:18.414Z,94393.00
2023-03-31T19:34:22.795Z,94394.00
2023-03-31T19:38:27.136Z,94399.00
2023-03-31T19:42:30.393Z,94389.00
2023-03-31T19:46:33.235Z,94394.00
2023-03-31T19:50:37.464Z,94393.00
2023-03-31T19:54:40.336Z,94378.00
2023-03-31T19:58:43.217Z,94377.00
2023-03-31T20:02:46.781Z,94382.00
2023-03-31T20:06:51.114Z,94372.00
2023-03-31T20:10:54.049Z,94366.00
2023-03-31T20:14:57.089Z,94375.00
2023-03-31T20:19:01.336Z,94373.00
2023-03-31T20:23:05.647Z,94369.00
2023-03-31T20:27:08.679Z,94359.00
2023-03-31T20:31:13.138Z,94357.00
2023-03-31T20:35:16.114Z,94344.00
2023-03-31T20:39:20.851Z,94357.00
2023-03-31T20:43:23.770Z,94338.00
2023-03-31T20:47:28.137Z,94355.00
2023-03-31T20:51:33.052Z,94360.00
2023-03-31T20:55:37.403Z,94355.00
2023-03-31T20:59:40.383Z,94360.00
2023-03-31T21:03:43.590Z,94363.00
2023-03-31T21:07:46.490Z,94376.00
2023-03-31T21:11:50.933Z,94382.00
2023-03-31T21:15:55.658Z,94390.00
2023-03-31T21:19:58.516Z,94391.00
2023-03-31T21:24:01.378Z,94396.00
2023-03-31T21:28:05.810Z,94400.00
2023-03-31T21:32:09.039Z,94390.00
2023-03-31T21:36:14.088Z,94397.00
2023-03-31T21:40:17.004Z,94407.00
2023-03-31T21:44:21.709Z,94405.00
2023-03-31T21:48:26.302Z,94404.00
2023-03-31T21:52:29.165Z,94410.00
2023-03-31T21:56:32.724Z,94394.00
2023-03-31T22:00:37.226Z,94397.00
2023-03-31T22:04:40.350Z,94405.00
2023-03-31T22:08:43.216Z,94401.00
2023-03-31T22:12:46.080Z,94411.00
2023-03-31T22:16:50.261Z,94406.00
2023-03-31T22:20:53.280Z,94409.00
2023-03-31T22:24:56.236Z,94413.00
2023-03-31T22:28:59.437Z,94405.00
2023-03-31T22:33:03.668Z,94421.00
2023-03-31T22:37:06.499Z,94414.00
2023-03-31T22:41:09.298Z,94427.00
2023-03-31T22:45:12.340Z,94440.00
2023-03-31T22:49:17.096Z,94418.00
2023-03-31T22:53:19.979Z,94445.00
2023-03-31T22:57:22.909Z,94443.00
2023-03-31T23:01:26.193Z,94444.00
2023-03-31T23:05:30.540Z,94428.00
2023-03-31T23:09:33.600Z,94424.00
2023-03-31T23:13:36.802Z,94424.00
2023-03-31T23:17:39.804Z,94418.00
2023-03-31T23:21:44.021Z,94391.00
2023-03-31T23:25:46.842Z,94384.00
2023-03-31T23:29:49.700Z,94395.00
2023-03-31T23:33:52.787Z,94400.00
2023-03-31T23:37:56.973Z,94402.00
2023-03-31T23:41:59.854Z,94404.00
2023-03-31T23:46:04.872Z,94406.00
2023-03-31T23:50:08.968Z,94398.00
2023-03-31T23:54:13.206Z,94400.00
2023-03-31T23:58:16.009Z,94393.00
